Time;durP1;ratioP1;P1;durP2;ratioP2;P2;SDS_P1;SDS_P2;PMS_P1;PMS_P2;Temp;Humidity;BMP_temperature;BMP_pressure;BME280_temperature;BME280_humidity;BME280_pressure;Samples;Min_cycle;Max_cycle;Signal;HPM_P1;HPM_P2
2023/09/16 00:01:33;;;;;;;15.90;11.60;;;;;;;16.03;100.00;98008.84;4956493;28;20238;-79
2023/09/16 00:03:59;;;;;;;14.33;11.07;;;;;;;16.01;100.00;98009.16;4956975;28;20263;-79
2023/09/16 00:06:26;;;;;;;16.17;11.53;;;;;;;15.97;100.00;98007.75;4956787;28;20307;-79
2023/09/16 00:08:54;;;;;;;15.63;11.03;;;;;;;15.95;100.00;98009.72;4955020;29;20215;-79
2023/09/16 00:11:22;;;;;;;15.40;11.70;;;;;;;15.95;100.00;98009.72;4956099;28;20235;-79
2023/09/16 00:13:48;;;;;;;17.33;12.57;;;;;;;15.95;100.00;98010.56;4956560;28;20207;-79
2023/09/16 00:16:16;;;;;;;18.27;12.77;;;;;;;15.98;100.00;98018.28;4957062;28;20223;-79
2023/09/16 00:18:43;;;;;;;17.47;12.57;;;;;;;15.95;100.00;98004.41;4956455;28;20218;-79
2023/09/16 00:21:10;;;;;;;16.67;11.90;;;;;;;15.96;100.00;98003.41;4956012;28;20228;-79
2023/09/16 00:23:37;;;;;;;16.17;11.60;;;;;;;15.98;100.00;98011.09;4956431;28;20344;-79
2023/09/16 00:26:04;;;;;;;17.60;13.17;;;;;;;16.02;100.00;98012.50;4956454;28;20701;-79
2023/09/16 00:28:32;;;;;;;14.70;11.70;;;;;;;15.99;100.00;98011.97;4956177;28;20231;-79
2023/09/16 00:31:01;;;;;;;17.83;11.93;;;;;;;15.95;100.00;98005.22;4955445;28;20607;-79
2023/09/16 00:33:29;;;;;;;16.23;11.17;;;;;;;15.90;100.00;98003.97;4955539;28;20211;-79
2023/09/16 00:35:56;;;;;;;15.73;11.20;;;;;;;15.93;100.00;98001.00;4955944;28;20215;-79
2023/09/16 00:38:23;;;;;;;14.80;11.03;;;;;;;15.91;100.00;97997.66;4955637;28;20360;-79
2023/09/16 00:40:50;;;;;;;14.33;10.47;;;;;;;15.89;100.00;98002.31;4955049;28;20322;-79
2023/09/16 00:43:18;;;;;;;15.47;10.60;;;;;;;15.82;100.00;98004.69;4955355;28;20559;-79
2023/09/16 00:45:44;;;;;;;13.67;10.37;;;;;;;15.80;100.00;98000.47;4955813;28;20234;-79
2023/09/16 00:48:13;;;;;;;12.77;10.40;;;;;;;15.77;100.00;97998.09;4955849;28;20207;-79
2023/09/16 00:50:41;;;;;;;14.80;10.97;;;;;;;15.78;100.00;97997.13;4954876;28;20876;-79
2023/09/16 00:53:09;;;;;;;15.63;11.00;;;;;;;15.77;100.00;98001.59;4954611;28;20215;-79
2023/09/16 00:55:36;;;;;;;15.33;10.80;;;;;;;15.71;100.00;97999.50;4954977;28;20204;-79
2023/09/16 00:58:03;;;;;;;15.00;10.73;;;;;;;15.69;100.00;98001.47;4955330;28;20212;-79
2023/09/16 01:00:31;;;;;;;17.53;12.30;;;;;;;15.64;100.00;98003.69;4954370;28;20208;-79
2023/09/16 01:02:59;;;;;;;15.63;11.70;;;;;;;15.66;100.00;97998.25;4955130;28;20343;-79
2023/09/16 01:05:25;;;;;;;14.57;11.00;;;;;;;15.64;100.00;98005.53;4954827;28;20331;-79
2023/09/16 01:07:52;;;;;;;16.33;10.93;;;;;;;15.63;100.00;97999.34;4954984;28;20207;-79
2023/09/16 01:10:20;;;;;;;15.00;10.77;;;;;;;15.60;100.00;97998.78;4954675;28;20301;-79
2023/09/16 01:12:48;;;;;;;15.87;11.27;;;;;;;15.58;100.00;98006.09;4954469;28;20251;-79
2023/09/16 01:15:16;;;;;;;18.97;12.97;;;;;;;15.50;100.00;98005.94;4955106;28;20214;-79
2023/09/16 01:17:50;;;;;;;18.10;12.73;;;;;;;15.45;100.00;98008.19;4954768;28;20211;-79
2023/09/16 01:20:19;;;;;;;14.93;11.43;;;;;;;15.41;100.00;97999.63;4955150;28;20215;-79
2023/09/16 01:22:46;;;;;;;16.17;11.90;;;;;;;15.38;100.00;97997.25;4954958;28;20211;-79
2023/09/16 01:25:14;;;;;;;16.20;11.50;;;;;;;15.37;100.00;97998.22;4954852;28;20242;-79
2023/09/16 01:27:41;;;;;;;18.20;12.33;;;;;;;15.36;100.00;98001.03;4954905;28;20207;-79
2023/09/16 01:30:09;;;;;;;17.53;12.97;;;;;;;15.39;100.00;97998.09;4954870;28;20215;-79
2023/09/16 01:32:41;;;;;;;17.37;12.97;;;;;;;15.37;100.00;97992.91;4954575;28;20227;-79
2023/09/16 01:35:11;;;;;;;17.50;12.77;;;;;;;15.35;100.00;97994.03;4954890;28;20242;-79
2023/09/16 01:37:39;;;;;;;17.50;13.07;;;;;;;15.35;100.00;98000.19;4954979;28;20678;-79
2023/09/16 01:40:10;;;;;;;20.87;14.23;;;;;;;15.27;100.00;97991.19;4954747;28;20223;-79
2023/09/16 01:42:38;;;;;;;18.67;12.97;;;;;;;15.29;100.00;97989.22;4954706;28;20661;-79
2023/09/16 01:45:07;;;;;;;19.83;12.67;;;;;;;15.24;100.00;97994.09;4954739;28;20234;-79
2023/09/16 01:47:33;;;;;;;16.93;13.23;;;;;;;15.21;100.00;97991.75;4954839;28;20207;-79
2023/09/16 01:50:00;;;;;;;17.53;12.80;;;;;;;15.20;100.00;97995.34;4954849;28;20222;-79
2023/09/16 01:52:26;;;;;;;19.37;13.67;;;;;;;15.19;100.00;97999.00;4954567;28;20243;-79
2023/09/16 01:54:53;;;;;;;19.97;13.17;;;;;;;15.21;100.00;98002.38;4954656;28;20211;-79
2023/09/16 01:57:19;;;;;;;17.43;12.90;;;;;;;15.20;100.00;98000.69;4954349;28;20682;-79
2023/09/16 01:59:47;;;;;;;21.43;14.33;;;;;;;15.17;100.00;98000.97;4954679;28;20215;-79
2023/09/16 02:02:13;;;;;;;21.80;13.63;;;;;;;15.21;100.00;98002.38;4953882;28;20246;-79
2023/09/16 02:04:43;;;;;;;19.10;13.57;;;;;;;15.20;100.00;98001.53;4957323;28;20301;-79
2023/09/16 02:07:10;;;;;;;20.50;13.70;;;;;;;15.21;100.00;97995.22;4957930;28;20650;-79
2023/09/16 02:09:36;;;;;;;20.50;13.43;;;;;;;15.22;100.00;97999.56;4957880;28;20601;-79
2023/09/16 02:12:03;;;;;;;23.37;14.33;;;;;;;15.19;100.00;97997.19;4957696;28;20235;-79
2023/09/16 02:14:30;;;;;;;20.53;13.93;;;;;;;15.21;100.00;97997.06;4957721;28;20690;-79
2023/09/16 02:16:57;;;;;;;19.13;13.07;;;;;;;15.18;100.00;98002.66;4957913;28;20223;-79
2023/09/16 02:19:25;;;;;;;20.53;13.03;;;;;;;15.20;100.00;98001.53;4957950;28;20310;-79
2023/09/16 02:21:52;;;;;;;20.27;13.57;;;;;;;15.19;100.00;98005.19;4957644;28;20263;-79
2023/09/16 02:24:18;;;;;;;20.87;13.50;;;;;;;15.15;100.00;98006.41;4957739;28;20235;-79
2023/09/16 02:26:45;;;;;;;19.80;13.33;;;;;;;15.14;100.00;98003.88;4957997;28;20211;-79
2023/09/16 02:29:11;;;;;;;22.10;13.40;;;;;;;15.10;100.00;98011.31;4957747;28;20215;-79
2023/09/16 02:31:37;;;;;;;20.73;14.07;;;;;;;15.07;100.00;98005.41;4957591;28;20242;-79
2023/09/16 02:34:05;;;;;;;20.33;13.60;;;;;;;15.06;100.00;98017.06;4957626;28;20215;-79
2023/09/16 02:36:32;;;;;;;19.63;13.60;;;;;;;15.02;100.00;98018.31;4957739;28;20222;-79
2023/09/16 02:38:58;;;;;;;21.33;13.77;;;;;;;14.97;100.00;98023.22;4957886;28;20255;-79
2023/09/16 02:41:25;;;;;;;20.60;13.60;;;;;;;14.93;100.00;98019.97;4957361;28;20231;-79
2023/09/16 02:43:51;;;;;;;21.40;13.60;;;;;;;14.91;100.00;98026.41;4957481;28;20215;-79
2023/09/16 02:46:18;;;;;;;21.67;14.67;;;;;;;14.88;100.00;98021.34;4957507;28;20235;-79
2023/09/16 02:48:44;;;;;;;22.80;15.10;;;;;;;14.88;100.00;98019.53;4957012;28;20231;-79
2023/09/16 02:51:12;;;;;;;19.23;13.80;;;;;;;14.89;100.00;98015.88;4957165;28;20236;-79
2023/09/16 02:53:38;;;;;;;20.23;13.67;;;;;;;14.89;100.00;98015.88;4957800;28;20211;-79
2023/09/16 02:56:06;;;;;;;20.97;14.07;;;;;;;14.90;100.00;98008.75;4957480;28;20568;-79
2023/09/16 02:58:33;;;;;;;18.97;13.83;;;;;;;14.91;100.00;98019.25;4957154;28;20271;-79
2023/09/16 03:00:59;;;;;;;21.80;14.30;;;;;;;14.96;100.00;98019.69;4957033;28;20250;-79
2023/09/16 03:03:26;;;;;;;20.63;14.03;;;;;;;14.93;100.00;98012.00;4957040;28;20219;-79
2023/09/16 03:05:52;;;;;;;20.50;13.60;;;;;;;14.91;100.00;98008.59;4957032;28;20238;-79
2023/09/16 03:08:20;;;;;;;19.30;13.90;;;;;;;14.90;100.00;98009.59;4957033;28;20220;-79
2023/09/16 03:10:47;;;;;;;20.27;13.70;;;;;;;14.90;100.00;98014.91;4956563;28;20235;-79
2023/09/16 03:13:13;;;;;;;20.70;14.00;;;;;;;14.88;100.00;98010.69;4956848;28;20218;-79
2023/09/16 03:15:45;;;;;;;20.07;13.17;;;;;;;14.87;100.00;98014.34;4955944;28;20219;-79
2023/09/16 03:18:11;;;;;;;21.23;14.10;;;;;;;14.84;100.00;98011.97;4956906;28;20626;-79
2023/09/16 03:20:38;;;;;;;20.43;13.83;;;;;;;14.80;100.00;98007.88;4956550;28;20215;-79
2023/09/16 03:23:04;;;;;;;18.07;12.83;;;;;;;14.70;100.00;98012.31;4956741;28;20211;-79
2023/09/16 03:25:32;;;;;;;22.23;12.87;;;;;;;14.56;100.00;98010.03;4956544;28;20231;-79
2023/09/16 03:28:00;;;;;;;18.03;12.97;;;;;;;14.45;100.00;98012.75;4956618;28;20215;-79
2023/09/16 03:30:27;;;;;;;16.80;11.13;;;;;;;14.36;100.00;98008.25;4956443;28;20219;-79
2023/09/16 03:32:53;;;;;;;14.47;10.80;;;;;;;14.30;100.00;98000.81;4956659;28;20211;-79
2023/09/16 03:35:21;;;;;;;16.00;10.83;;;;;;;14.22;100.00;98001.47;4956449;28;20208;-79
2023/09/16 03:37:47;;;;;;;15.73;11.33;;;;;;;14.14;100.00;98000.38;4956467;28;20217;-79
2023/09/16 03:40:14;;;;;;;14.83;10.43;;;;;;;14.09;100.00;98006.09;4956288;28;20226;-79
2023/09/16 03:42:42;;;;;;;14.57;10.33;;;;;;;14.03;100.00;97989.81;4955799;28;20236;-79
2023/09/16 03:45:09;;;;;;;14.57;10.13;;;;;;;13.96;100.00;98005.47;4955158;29;20235;-79
2023/09/16 03:47:35;;;;;;;15.60;10.23;;;;;;;13.97;100.00;98000.97;4956988;28;20554;-79
2023/09/16 03:50:02;;;;;;;14.00;10.37;;;;;;;13.93;100.00;98000.41;4956714;28;20208;-79
2023/09/16 03:52:29;;;;;;;15.50;10.87;;;;;;;13.93;100.00;97999.56;4955887;28;20760;-79
2023/09/16 03:54:55;;;;;;;14.33;10.73;;;;;;;13.96;100.00;97999.28;4956111;28;20215;-79
2023/09/16 03:57:22;;;;;;;14.83;11.10;;;;;;;13.94;100.00;98001.25;4956046;28;20218;-79
2023/09/16 03:59:49;;;;;;;15.00;10.70;;;;;;;13.94;100.00;97995.94;4955946;28;20210;-79
2023/09/16 04:02:16;;;;;;;14.07;10.17;;;;;;;13.91;100.00;97993.53;4955424;28;20250;-79
2023/09/16 04:04:43;;;;;;;16.60;10.20;;;;;;;13.86;100.00;97987.75;4956179;28;20211;-79
2023/09/16 04:07:09;;;;;;;14.23;10.13;;;;;;;13.81;100.00;97984.66;4955787;28;20223;-79
2023/09/16 04:09:36;;;;;;;12.57;9.27;;;;;;;13.77;100.00;97977.91;4955689;28;20211;-79
2023/09/16 04:12:02;;;;;;;13.53;9.27;;;;;;;13.73;100.00;97972.03;4955428;28;20754;-79
2023/09/16 04:14:29;;;;;;;14.00;8.97;;;;;;;13.71;100.00;97973.13;4955423;28;20307;-79
2023/09/16 04:16:57;;;;;;;12.70;9.73;;;;;;;13.68;100.00;97970.75;4955489;28;20207;-79
2023/09/16 04:19:23;;;;;;;14.10;9.57;;;;;;;13.65;100.00;97984.25;4955477;28;20291;-79
2023/09/16 04:21:51;;;;;;;12.40;9.57;;;;;;;13.64;100.00;97975.44;4954760;28;20227;-78
2023/09/16 04:24:17;;;;;;;14.27;9.73;;;;;;;13.70;100.00;97971.44;4955190;28;20215;-79
2023/09/16 04:26:44;;;;;;;14.43;10.83;;;;;;;13.77;100.00;97975.25;4955272;28;20239;-79
2023/09/16 04:29:10;;;;;;;15.40;10.40;;;;;;;13.81;100.00;97982.00;4955405;28;20218;-79
2023/09/16 04:31:37;;;;;;;13.00;10.00;;;;;;;13.88;100.00;97988.50;4954503;28;20321;-79
2023/09/16 04:34:05;;;;;;;13.03;9.53;;;;;;;13.92;100.00;97977.47;4955238;28;20593;-79
2023/09/16 04:36:31;;;;;;;13.57;10.13;;;;;;;13.97;100.00;97979.72;4954667;28;20680;-79
2023/09/16 04:38:58;;;;;;;13.93;9.77;;;;;;;13.99;100.00;97983.13;4954911;28;20216;-79
2023/09/16 04:41:24;;;;;;;12.97;9.47;;;;;;;14.02;100.00;97966.91;4954574;28;20282;-79
2023/09/16 04:43:51;;;;;;;14.27;9.63;;;;;;;14.03;100.00;97965.91;4955679;28;20220;-78
2023/09/16 04:46:18;;;;;;;13.83;9.67;;;;;;;14.02;100.00;97966.91;4954034;28;20269;-77
2023/09/16 04:48:44;;;;;;;14.13;10.20;;;;;;;13.97;100.00;97969.09;4954085;28;20231;-79
2023/09/16 04:51:12;;;;;;;13.90;9.50;;;;;;;13.92;100.00;97971.28;4954051;28;20231;-79
2023/09/16 04:53:39;;;;;;;14.67;10.10;;;;;;;13.91;100.00;97961.66;4954614;28;20211;-78
2023/09/16 04:56:06;;;;;;;16.60;11.00;;;;;;;13.91;100.00;97969.63;4954772;28;20211;-78
2023/09/16 04:58:32;;;;;;;13.50;9.47;;;;;;;13.93;100.00;97962.38;4954702;28;20218;-78
2023/09/16 05:00:59;;;;;;;13.93;10.17;;;;;;;13.92;100.00;97960.66;4954551;28;20255;-78
2023/09/16 05:03:26;;;;;;;12.93;9.73;;;;;;;13.88;100.00;97960.09;4954568;28;20219;-78
2023/09/16 05:05:52;;;;;;;12.17;9.30;;;;;;;13.84;100.00;97948.06;4954635;28;20230;-78
2023/09/16 05:08:21;;;;;;;11.47;9.00;;;;;;;13.84;100.00;97947.19;4954318;28;20214;-78
2023/09/16 05:10:53;;;;;;;15.80;10.43;;;;;;;13.82;100.00;97955.28;4954086;28;20235;-77
2023/09/16 05:13:19;;;;;;;15.93;10.27;;;;;;;13.84;100.00;97947.19;4955144;28;20211;-81
2023/09/16 05:15:47;;;;;;;16.60;11.03;;;;;;;13.90;100.00;97952.00;4955486;28;20218;-81
2023/09/16 05:18:14;;;;;;;14.50;10.30;;;;;;;13.96;100.00;97959.44;4955098;28;20218;-81
2023/09/16 05:20:40;;;;;;;16.43;11.67;;;;;;;14.00;100.00;97947.59;4953481;28;20246;-77
2023/09/16 05:23:07;;;;;;;16.17;11.30;;;;;;;14.09;100.00;97952.09;4953753;28;20227;-77
2023/09/16 05:25:35;;;;;;;17.67;12.43;;;;;;;14.15;100.00;97951.56;4953754;28;20243;-77
2023/09/16 05:28:01;;;;;;;20.07;12.30;;;;;;;14.22;100.00;97947.44;4953665;28;20211;-77
2023/09/16 05:30:28;;;;;;;17.60;11.70;;;;;;;14.27;100.00;97950.53;4953315;28;20222;-77
2023/09/16 05:32:54;;;;;;;17.83;11.77;;;;;;;14.32;100.00;97937.69;4953659;28;20215;-77
2023/09/16 05:35:20;;;;;;;19.33;12.60;;;;;;;14.31;100.00;97942.16;4953262;28;20217;-77
2023/09/16 05:37:47;;;;;;;18.33;12.80;;;;;;;14.34;100.00;97951.69;4955040;28;20226;-77
2023/09/16 05:40:13;;;;;;;16.43;11.77;;;;;;;14.37;100.00;97946.94;4959672;28;20211;-78
2023/09/16 05:42:41;;;;;;;17.23;11.80;;;;;;;14.43;100.00;97951.72;4961106;28;20603;-77
2023/09/16 05:45:10;;;;;;;18.27;11.87;;;;;;;14.48;100.00;97943.38;4961222;28;20218;-79
2023/09/16 05:47:36;;;;;;;19.57;12.77;;;;;;;14.51;100.00;97946.59;4960589;28;20265;-79
2023/09/16 05:50:03;;;;;;;17.43;12.63;;;;;;;14.55;100.00;97945.34;4960456;28;20225;-79
2023/09/16 05:52:30;;;;;;;19.83;12.67;;;;;;;14.59;100.00;97945.91;4960406;28;20243;-79
2023/09/16 05:54:58;;;;;;;17.83;12.27;;;;;;;14.64;100.00;97957.84;4960710;28;20211;-79
2023/09/16 05:57:24;;;;;;;16.87;12.93;;;;;;;14.67;100.00;97948.75;4960628;28;20583;-79
2023/09/16 05:59:52;;;;;;;17.80;12.97;;;;;;;14.77;100.00;97957.59;4960451;28;20207;-79
2023/09/16 06:02:19;;;;;;;19.03;13.53;;;;;;;14.88;100.00;97958.34;4960058;28;20239;-79
2023/09/16 06:04:45;;;;;;;20.77;12.73;;;;;;;14.92;100.00;97954.41;4960280;28;20697;-79
2023/09/16 06:07:12;;;;;;;17.37;12.77;;;;;;;15.01;100.00;97955.41;4960630;28;20235;-79
2023/09/16 06:09:38;;;;;;;20.13;12.40;;;;;;;15.07;100.00;97949.53;4960999;28;20218;-79
2023/09/16 06:12:05;;;;;;;19.80;12.97;;;;;;;15.19;100.00;97951.06;4960197;28;20733;-79
2023/09/16 06:14:32;;;;;;;22.33;14.13;;;;;;;15.26;100.00;97954.88;4960354;28;20666;-79
2023/09/16 06:17:00;;;;;;;18.93;13.00;;;;;;;15.36;100.00;97953.09;4960152;28;20212;-79
2023/09/16 06:19:27;;;;;;;23.07;13.70;;;;;;;15.47;100.00;97955.63;4960827;28;20213;-79
2023/09/16 06:21:54;;;;;;;22.47;14.00;;;;;;;15.60;100.00;97958.84;4959826;28;20232;-79
2023/09/16 06:24:21;;;;;;;18.93;13.60;;;;;;;15.70;100.00;97957.03;4960530;28;20215;-79
2023/09/16 06:26:47;;;;;;;17.97;13.70;;;;;;;15.80;100.00;97971.16;4960443;28;20231;-79
2023/09/16 06:29:14;;;;;;;17.87;13.27;;;;;;;15.91;100.00;97976.34;4960447;28;20215;-79
2023/09/16 06:31:40;;;;;;;18.53;12.93;;;;;;;16.01;100.00;97971.84;4959946;28;20615;-79
2023/09/16 06:34:08;;;;;;;18.13;12.93;;;;;;;16.10;100.00;97969.97;4960973;28;20211;-79
2023/09/16 06:36:38;;;;;;;19.23;14.00;;;;;;;16.19;100.00;97970.94;4961044;28;20218;-79
2023/09/16 06:39:07;;;;;;;19.60;14.00;;;;;;;16.28;100.00;97978.91;4961194;28;20242;-79
2023/09/16 06:41:33;;;;;;;18.03;13.63;;;;;;;16.40;100.00;97967.09;4961066;28;20227;-79
2023/09/16 06:44:00;;;;;;;18.80;13.00;;;;;;;16.46;100.00;97979.88;4960569;28;20215;-79
2023/09/16 06:46:26;;;;;;;17.93;13.20;;;;;;;16.55;100.00;97972.81;4960109;28;20732;-79
2023/09/16 06:48:53;;;;;;;18.07;13.30;;;;;;;16.65;100.00;97982.44;4960194;28;20208;-78
2023/09/16 06:51:21;;;;;;;16.23;12.93;;;;;;;16.79;100.00;97975.78;4956449;28;20242;-79
2023/09/16 06:53:47;;;;;;;17.67;12.67;;;;;;;16.85;100.00;97973.38;4957024;28;20207;-80
2023/09/16 06:56:14;;;;;;;17.70;12.43;;;;;;;16.98;100.00;97975.69;4956965;28;20223;-77
2023/09/16 06:58:40;;;;;;;17.43;13.13;;;;;;;17.09;100.00;97979.00;4956840;28;20222;-78
2023/09/16 07:01:10;;;;;;;16.90;12.73;;;;;;;17.23;100.00;97973.16;4956656;28;20245;-80
2023/09/16 07:03:36;;;;;;;15.93;12.10;;;;;;;17.34;100.00;97970.25;4956931;28;20274;-79
2023/09/16 07:06:03;;;;;;;15.33;11.73;;;;;;;17.49;100.00;97976.78;4956847;28;20232;-80
2023/09/16 07:08:31;;;;;;;19.40;13.07;;;;;;;17.64;100.00;97983.28;4957258;28;20598;-80
2023/09/16 07:10:58;;;;;;;17.87;12.80;;;;;;;17.76;100.00;97976.72;4955807;28;20593;-78
2023/09/16 07:13:25;;;;;;;16.00;12.20;;;;;;;17.83;100.00;97975.09;4956223;28;20568;-80
2023/09/16 07:15:55;;;;;;;16.77;11.97;;;;;;;18.02;100.00;97974.06;4956514;28;20210;-80
2023/09/16 07:18:22;;;;;;;13.70;11.17;;;;;;;18.10;100.00;97982.16;4955935;28;20211;-80
2023/09/16 07:20:49;;;;;;;15.97;11.33;;;;;;;18.23;100.00;97980.72;4956155;28;20231;-78
2023/09/16 07:23:15;;;;;;;13.37;11.53;;;;;;;18.30;100.00;97979.09;4956383;28;20233;-78
2023/09/16 07:25:43;;;;;;;14.37;10.93;;;;;;;18.40;100.00;97982.56;4956564;28;20222;-80
2023/09/16 07:28:10;;;;;;;16.67;11.13;;;;;;;18.56;100.00;97985.34;4957006;28;20243;-80
2023/09/16 07:30:37;;;;;;;12.90;10.53;;;;;;;18.67;100.00;97977.03;4956495;28;20211;-78
2023/09/16 07:33:04;;;;;;;13.60;10.93;;;;;;;18.79;100.00;97983.78;4956570;28;20238;-80
2023/09/16 07:35:30;;;;;;;15.70;11.47;;;;;;;18.93;100.00;97982.31;4956419;28;20215;-80
2023/09/16 07:37:57;;;;;;;14.40;10.90;;;;;;;19.08;100.00;97981.53;4956376;28;20591;-79
2023/09/16 07:40:23;;;;;;;15.63;11.73;;;;;;;19.20;100.00;97974.91;4956374;28;20213;-80
2023/09/16 07:42:51;;;;;;;13.47;10.87;;;;;;;19.33;100.00;97983.31;4956636;28;20211;-80
2023/09/16 07:45:18;;;;;;;13.27;10.13;;;;;;;19.42;100.00;97979.66;4956350;28;20720;-78
2023/09/16 07:47:44;;;;;;;13.77;10.87;;;;;;;19.53;100.00;97975.81;4956614;28;20231;-80
2023/09/16 07:50:11;;;;;;;14.17;9.73;;;;;;;19.66;100.00;97974.34;4956496;28;20238;-78
2023/09/16 07:52:37;;;;;;;11.53;10.17;;;;;;;19.83;100.00;97973.34;4955930;28;20227;-79
2023/09/16 07:55:05;;;;;;;12.70;10.33;;;;;;;20.01;100.00;97982.06;4956300;28;20708;-79
2023/09/16 07:57:31;;;;;;;11.53;9.53;;;;;;;20.06;100.00;97977.06;4956809;28;20247;-79
2023/09/16 07:59:59;;;;;;;12.80;9.83;;;;;;;20.15;100.00;97973.38;4957089;28;20226;-79
2023/09/16 08:02:25;;;;;;;13.10;9.50;;;;;;;20.27;100.00;97977.38;4955722;28;20250;-79
2023/09/16 08:04:52;;;;;;;10.77;9.03;;;;;;;20.43;100.00;97977.34;4956623;28;20217;-79
2023/09/16 08:07:18;;;;;;;11.37;8.97;;;;;;;20.54;100.00;97981.53;4956758;28;20239;-79
2023/09/16 08:09:45;;;;;;;11.70;8.90;;;;;;;20.59;100.00;97987.19;4956750;28;20211;-79
2023/09/16 08:12:11;;;;;;;10.77;8.40;;;;;;;20.59;100.00;97982.69;4956162;28;20228;-79
2023/09/16 08:14:38;;;;;;;10.90;9.00;;;;;;;20.61;100.00;97987.88;4956583;28;20218;-79
2023/09/16 08:17:06;;;;;;;9.87;8.20;;;;;;;20.64;100.00;97980.31;4956268;28;20208;-79
2023/09/16 08:19:32;;;;;;;10.53;8.10;;;;;;;20.68;100.00;97986.19;4956405;28;20212;-79
2023/09/16 08:21:59;;;;;;;10.17;7.80;;;;;;;20.71;100.00;97989.38;4955883;28;20231;-79
2023/09/16 08:24:25;;;;;;;9.83;8.10;;;;;;;20.80;100.00;97974.88;4956315;28;20215;-79
2023/09/16 08:26:52;;;;;;;9.60;8.10;;;;;;;20.89;100.00;97978.41;4956313;28;20243;-79
2023/09/16 08:29:18;;;;;;;9.77;7.63;;;;;;;20.94;100.00;97982.28;4956050;28;20245;-79
2023/09/16 08:31:45;;;;;;;11.37;8.50;;;;;;;21.06;100.00;97980.88;4955454;28;20236;-79
2023/09/16 08:34:13;;;;;;;9.60;8.47;;;;;;;21.23;100.00;97981.63;4956061;28;20215;-79
2023/09/16 08:36:39;;;;;;;9.50;8.17;;;;;;;21.30;100.00;97986.13;4955505;28;20218;-79
2023/09/16 08:39:06;;;;;;;9.53;8.33;;;;;;;21.30;99.56;97986.13;4956467;28;20220;-79
2023/09/16 08:41:42;;;;;;;10.73;8.10;;;;;;;21.57;97.25;97985.63;4955625;28;20231;-79
2023/09/16 08:44:10;;;;;;;8.90;7.77;;;;;;;21.49;97.06;97988.38;4955767;28;20207;-79
2023/09/16 08:46:42;;;;;;;8.10;7.00;;;;;;;21.56;98.50;97992.03;4955802;28;20341;-79
2023/09/16 08:49:12;;;;;;;10.03;8.47;;;;;;;21.68;97.10;97989.78;4955817;28;20215;-79
2023/09/16 08:51:43;;;;;;;9.70;8.47;;;;;;;21.94;93.76;97988.41;4955140;28;20752;-79
2023/09/16 08:54:11;;;;;;;8.83;7.47;;;;;;;21.90;94.07;97988.97;4956124;28;20211;-79
2023/09/16 08:56:38;;;;;;;9.60;8.30;;;;;;;21.96;94.88;97991.78;4955408;28;20670;-79
2023/09/16 08:59:05;;;;;;;9.70;7.47;;;;;;;22.07;94.42;97993.22;4955806;28;20207;-79
2023/09/16 09:01:31;;;;;;;8.97;7.30;;;;;;;22.11;93.42;97998.03;4955170;28;20242;-79
2023/09/16 09:03:59;;;;;;;7.80;6.23;;;;;;;22.14;93.73;97999.53;4955742;28;20215;-79
2023/09/16 09:06:27;;;;;;;7.27;6.47;;;;;;;22.19;93.57;98003.34;4955276;28;20271;-79
2023/09/16 09:08:55;;;;;;;7.87;6.97;;;;;;;22.26;92.89;97993.53;4955427;28;20211;-79
2023/09/16 09:11:23;;;;;;;7.63;6.63;;;;;;;22.32;92.00;97991.97;4955423;28;20243;-79
2023/09/16 09:13:50;;;;;;;7.60;6.73;;;;;;;22.40;91.24;97990.03;4954990;28;20207;-79
2023/09/16 09:16:19;;;;;;;8.27;6.87;;;;;;;22.42;89.55;97982.59;4955373;28;20590;-79
2023/09/16 09:18:47;;;;;;;7.77;6.40;;;;;;;22.45;89.37;97981.44;4955597;28;20254;-79
2023/09/16 09:21:15;;;;;;;7.57;6.53;;;;;;;22.51;89.32;97989.63;4955211;28;20263;-79
2023/09/16 09:23:41;;;;;;;8.10;6.83;;;;;;;22.75;87.95;97978.56;4955686;28;20211;-79
2023/09/16 09:26:10;;;;;;;9.37;7.90;;;;;;;22.95;83.88;97962.69;4955265;28;20207;-79
2023/09/16 09:28:37;;;;;;;9.10;7.70;;;;;;;22.99;84.67;97964.81;4954964;28;20215;-79
2023/09/16 09:31:04;;;;;;;8.53;7.50;;;;;;;23.17;84.33;97961.78;4955388;28;20237;-79
2023/09/16 09:33:30;;;;;;;9.17;7.13;;;;;;;23.25;83.76;97959.81;4955489;28;20219;-79
2023/09/16 09:36:11;;;;;;;8.30;6.60;;;;;;;23.37;81.59;97958.28;4955533;28;20683;-79
2023/09/16 09:38:39;;;;;;;7.50;5.93;;;;;;;23.42;80.75;97953.13;4955527;28;20255;-79
2023/09/16 09:41:06;;;;;;;8.20;6.63;;;;;;;23.57;79.43;97953.09;4954957;28;20238;-79
2023/09/16 09:43:34;;;;;;;7.70;6.13;;;;;;;23.62;78.02;97956.91;4954720;28;20215;-79
2023/09/16 09:46:00;;;;;;;7.83;6.53;;;;;;;23.71;76.42;97955.75;4955277;28;20227;-79
2023/09/16 09:48:27;;;;;;;9.37;7.57;;;;;;;23.74;77.19;97947.28;4955001;28;20231;-79
2023/09/16 09:50:54;;;;;;;6.37;5.73;;;;;;;23.73;76.64;97953.72;4954827;28;20349;-79
2023/09/16 09:53:20;;;;;;;8.50;6.50;;;;;;;23.82;76.73;97952.53;4955366;28;20215;-79
2023/09/16 09:55:49;;;;;;;7.73;6.93;;;;;;;23.88;76.78;97951.81;4955237;28;20214;-79
2023/09/16 09:58:15;;;;;;;7.03;6.10;;;;;;;24.06;74.11;97949.47;4955403;28;20207;-79
2023/09/16 10:00:48;;;;;;;7.20;6.17;;;;;;;24.09;73.26;97949.06;4954536;28;20231;-79
2023/09/16 10:03:15;;;;;;;5.90;5.30;;;;;;;24.07;73.96;97947.63;4955319;28;20237;-79
2023/09/16 10:05:41;;;;;;;5.40;4.90;;;;;;;24.13;72.12;97944.97;4954754;28;20215;-79
2023/09/16 10:08:08;;;;;;;5.60;5.00;;;;;;;24.09;72.32;97949.06;4954691;28;20236;-79
2023/09/16 10:10:36;;;;;;;5.50;4.47;;;;;;;24.14;72.41;97943.09;4954884;28;20215;-79
2023/09/16 10:13:03;;;;;;;4.53;4.13;;;;;;;24.23;71.69;97940.06;4954987;28;20207;-79
2023/09/16 10:15:33;;;;;;;5.33;4.83;;;;;;;24.35;72.63;97937.66;4955116;28;20215;-79
2023/09/16 10:18:03;;;;;;;5.30;4.80;;;;;;;24.47;72.13;97938.78;4955157;28;20222;-79
2023/09/16 10:20:30;;;;;;;5.53;4.90;;;;;;;24.55;71.51;97923.25;4954775;28;20211;-79
2023/09/16 10:22:57;;;;;;;6.13;4.93;;;;;;;24.49;69.94;97917.78;4954782;28;20687;-79
2023/09/16 10:25:24;;;;;;;5.93;4.60;;;;;;;24.54;70.28;97932.41;4957920;28;20251;-79
2023/09/16 10:27:58;;;;;;;5.50;4.80;;;;;;;24.56;70.57;97930.31;4958145;28;20245;-79
2023/09/16 10:30:25;;;;;;;4.63;4.23;;;;;;;24.71;69.74;97935.66;4958314;28;20274;-79
2023/09/16 10:32:53;;;;;;;4.67;4.27;;;;;;;24.84;68.84;97933.00;4958030;28;20223;-79
2023/09/16 10:35:21;;;;;;;5.20;4.43;;;;;;;25.02;67.60;97920.63;4959128;28;20214;-80
2023/09/16 10:37:51;;;;;;;4.30;3.90;;;;;;;25.07;66.68;97906.50;4958867;28;20207;-79
2023/09/16 10:40:19;;;;;;;4.67;4.17;;;;;;;25.12;63.97;97894.03;4958557;28;20222;-79
2023/09/16 10:42:47;;;;;;;4.43;4.03;;;;;;;25.08;66.14;97913.56;4958220;28;20208;-80
2023/09/16 10:45:17;;;;;;;4.63;4.23;;;;;;;25.06;64.94;97911.06;4958235;28;20294;-80
2023/09/16 10:47:46;;;;;;;4.30;3.90;;;;;;;25.20;63.59;97896.56;4959079;28;20713;-80
2023/09/16 10:50:12;;;;;;;4.20;3.80;;;;;;;25.30;61.75;97890.81;4958200;28;20211;-79
2023/09/16 10:52:50;;;;;;;4.37;3.87;;;;;;;25.22;61.71;97880.97;4958477;28;20323;-80
2023/09/16 10:55:23;;;;;;;3.67;3.37;;;;;;;25.24;62.28;97897.03;4958502;28;20200;-79
2023/09/16 10:57:56;;;;;;;3.70;3.40;;;;;;;25.38;60.91;97894.16;4957993;28;20212;-79
2023/09/16 11:00:26;;;;;;;3.60;3.30;;;;;;;25.46;60.46;97883.13;4957695;28;20207;-79
2023/09/16 11:02:58;;;;;;;3.30;3.00;;;;;;;25.61;59.17;97878.38;4957717;28;20674;-80
2023/09/16 11:05:25;;;;;;;3.33;3.10;;;;;;;25.65;58.30;97876.94;4958574;28;20215;-79
2023/09/16 11:07:54;;;;;;;3.23;2.93;;;;;;;25.72;56.99;97861.50;4957958;28;20694;-79
2023/09/16 11:10:23;;;;;;;3.30;3.00;;;;;;;25.84;55.97;97857.16;4957479;28;20246;-80
2023/09/16 11:12:50;;;;;;;3.00;2.70;;;;;;;25.88;54.89;97855.69;4957889;28;20254;-80
2023/09/16 11:15:17;;;;;;;3.17;2.87;;;;;;;26.06;54.48;97839.69;4957983;28;20247;-80
2023/09/16 11:17:44;;;;;;;3.13;2.83;;;;;;;26.08;54.79;97851.13;4958006;28;20737;-79